sensor_id;sensor_type;location;lat;lon;timestamp;pressure;altitude;pressure_sealevel;temperature;humidity
70971;BME280;58632;51.718;19.446;2024-02-26T00:01:41;98647.41;;;2.62;100.00
70971;BME280;58632;51.718;19.446;2024-02-26T00:04:26;98646.17;;;2.62;100.00
70971;BME280;58632;51.718;19.446;2024-02-26T00:06:52;98651.40;;;2.63;100.00
70971;BME280;58632;51.718;19.446;2024-02-26T00:09:19;98644.55;;;2.65;100.00
70971;BME280;58632;51.718;19.446;2024-02-26T00:11:45;98643.11;;;2.67;100.00
70971;BME280;58632;51.718;19.446;2024-02-26T00:14:10;98642.77;;;2.68;100.00
70971;BME280;58632;51.718;19.446;2024-02-26T00:16:36;98643.35;;;2.68;100.00
70971;BME280;58632;51.718;19.446;2024-02-26T00:19:01;98638.98;;;2.68;100.00
70971;BME280;58632;51.718;19.446;2024-02-26T00:21:27;98639.30;;;2.66;100.00
70971;BME280;58632;51.718;19.446;2024-02-26T00:23:53;98636.04;;;2.64;100.00
70971;BME280;58632;51.718;19.446;2024-02-26T00:26:21;98634.39;;;2.62;100.00
70971;BME280;58632;51.718;19.446;2024-02-26T00:28:47;98636.42;;;2.60;100.00
70971;BME280;58632;51.718;19.446;2024-02-26T00:31:14;98632.23;;;2.59;100.00
70971;BME280;58632;51.718;19.446;2024-02-26T00:33:40;98631.61;;;2.58;100.00
70971;BME280;58632;51.718;19.446;2024-02-26T00:36:05;98634.62;;;2.55;100.00
70971;BME280;58632;51.718;19.446;2024-02-26T00:38:31;98632.63;;;2.51;100.00
70971;BME280;58632;51.718;19.446;2024-02-26T00:40:57;98629.88;;;2.47;100.00
70971;BME280;58632;51.718;19.446;2024-02-26T00:43:23;98627.66;;;2.44;100.00
70971;BME280;58632;51.718;19.446;2024-02-26T00:45:48;98631.31;;;2.42;100.00
70971;BME280;58632;51.718;19.446;2024-02-26T00:48:14;98629.40;;;2.41;100.00
70971;BME280;58632;51.718;19.446;2024-02-26T00:50:42;98628.80;;;2.38;100.00
70971;BME280;58632;51.718;19.446;2024-02-26T00:53:11;98629.42;;;2.36;100.00
70971;BME280;58632;51.718;19.446;2024-02-26T00:55:36;98628.13;;;2.33;100.00
70971;BME280;58632;51.718;19.446;2024-02-26T00:58:02;98630.48;;;2.30;100.00
70971;BME280;58632;51.718;19.446;2024-02-26T01:00:29;98624.58;;;2.26;100.00
70971;BME280;58632;51.718;19.446;2024-02-26T01:02:55;98629.01;;;2.22;100.00
70971;BME280;58632;51.718;19.446;2024-02-26T01:05:21;98628.83;;;2.20;100.00
70971;BME280;58632;51.718;19.446;2024-02-26T01:07:47;98627.39;;;2.19;100.00
70971;BME280;58632;51.718;19.446;2024-02-26T01:10:13;98632.08;;;2.16;100.00
70971;BME280;58632;51.718;19.446;2024-02-26T01:12:39;98628.35;;;2.12;100.00
70971;BME280;58632;51.718;19.446;2024-02-26T01:15:05;98627.98;;;2.09;100.00
70971;BME280;58632;51.718;19.446;2024-02-26T01:17:31;98632.00;;;2.04;100.00
70971;BME280;58632;51.718;19.446;2024-02-26T01:19:56;98628.61;;;1.99;100.00
70971;BME280;58632;51.718;19.446;2024-02-26T01:22:22;98625.60;;;1.94;100.00
70971;BME280;58632;51.718;19.446;2024-02-26T01:24:51;98623.27;;;1.92;100.00
70971;BME280;58632;51.718;19.446;2024-02-26T01:27:16;98624.25;;;1.90;100.00
70971;BME280;58632;51.718;19.446;2024-02-26T01:29:42;98622.74;;;1.90;100.00
70971;BME280;58632;51.718;19.446;2024-02-26T01:32:10;98624.70;;;1.90;100.00
70971;BME280;58632;51.718;19.446;2024-02-26T01:34:36;98621.79;;;1.89;100.00
70971;BME280;58632;51.718;19.446;2024-02-26T01:37:02;98623.48;;;1.88;100.00
70971;BME280;58632;51.718;19.446;2024-02-26T01:39:28;98623.71;;;1.84;100.00
70971;BME280;58632;51.718;19.446;2024-02-26T01:41:55;98623.58;;;1.82;100.00
70971;BME280;58632;51.718;19.446;2024-02-26T01:44:21;98622.48;;;1.82;100.00
70971;BME280;58632;51.718;19.446;2024-02-26T01:46:47;98618.55;;;1.82;100.00
70971;BME280;58632;51.718;19.446;2024-02-26T01:49:14;98617.52;;;1.83;100.00
70971;BME280;58632;51.718;19.446;2024-02-26T01:51:41;98619.34;;;1.83;100.00
70971;BME280;58632;51.718;19.446;2024-02-26T01:54:08;98622.34;;;1.81;100.00
70971;BME280;58632;51.718;19.446;2024-02-26T01:56:35;98621.08;;;1.79;100.00
70971;BME280;58632;51.718;19.446;2024-02-26T01:59:02;98624.62;;;1.78;100.00
70971;BME280;58632;51.718;19.446;2024-02-26T02:01:31;98621.43;;;1.77;100.00
70971;BME280;58632;51.718;19.446;2024-02-26T02:03:59;98627.52;;;1.78;100.00
70971;BME280;58632;51.718;19.446;2024-02-26T02:06:25;98633.49;;;1.79;100.00
70971;BME280;58632;51.718;19.446;2024-02-26T02:08:55;98629.77;;;1.79;100.00
70971;BME280;58632;51.718;19.446;2024-02-26T02:11:20;98631.05;;;1.79;100.00
70971;BME280;58632;51.718;19.446;2024-02-26T02:13:46;98630.92;;;1.81;100.00
70971;BME280;58632;51.718;19.446;2024-02-26T02:16:13;98634.50;;;1.84;100.00
70971;BME280;58632;51.718;19.446;2024-02-26T02:18:38;98630.54;;;1.85;100.00
70971;BME280;58632;51.718;19.446;2024-02-26T02:21:04;98631.77;;;1.86;100.00
70971;BME280;58632;51.718;19.446;2024-02-26T02:23:30;98630.48;;;1.89;100.00
70971;BME280;58632;51.718;19.446;2024-02-26T02:25:56;98632.13;;;1.92;100.00
70971;BME280;58632;51.718;19.446;2024-02-26T02:28:23;98631.34;;;1.94;100.00
70971;BME280;58632;51.718;19.446;2024-02-26T02:30:49;98633.04;;;1.95;100.00
70971;BME280;58632;51.718;19.446;2024-02-26T02:33:17;98632.39;;;1.96;100.00
70971;BME280;58632;51.718;19.446;2024-02-26T02:35:43;98632.02;;;1.96;100.00
70971;BME280;58632;51.718;19.446;2024-02-26T02:38:08;98633.42;;;1.98;100.00
70971;BME280;58632;51.718;19.446;2024-02-26T02:40:36;98629.48;;;1.99;100.00
70971;BME280;58632;51.718;19.446;2024-02-26T02:43:02;98633.12;;;2.01;100.00
70971;BME280;58632;51.718;19.446;2024-02-26T02:45:28;98635.27;;;2.02;100.00
70971;BME280;58632;51.718;19.446;2024-02-26T02:47:54;98636.48;;;2.03;100.00
70971;BME280;58632;51.718;19.446;2024-02-26T02:50:19;98636.67;;;2.05;100.00
70971;BME280;58632;51.718;19.446;2024-02-26T02:52:45;98640.20;;;2.04;100.00
70971;BME280;58632;51.718;19.446;2024-02-26T02:55:11;98637.62;;;2.04;100.00
70971;BME280;58632;51.718;19.446;2024-02-26T02:57:37;98639.30;;;2.02;100.00
70971;BME280;58632;51.718;19.446;2024-02-26T03:00:09;98642.57;;;2.00;100.00
70971;BME280;58632;51.718;19.446;2024-02-26T03:02:38;98641.23;;;2.00;100.00
70971;BME280;58632;51.718;19.446;2024-02-26T03:05:06;98642.10;;;2.00;100.00
70971;BME280;58632;51.718;19.446;2024-02-26T03:07:31;98636.48;;;2.00;100.00
70971;BME280;58632;51.718;19.446;2024-02-26T03:09:57;98634.31;;;2.00;100.00
70971;BME280;58632;51.718;19.446;2024-02-26T03:12:23;98633.20;;;1.98;100.00
70971;BME280;58632;51.718;19.446;2024-02-26T03:14:48;98633.25;;;1.96;100.00
70971;BME280;58632;51.718;19.446;2024-02-26T03:17:14;98629.66;;;1.93;100.00
70971;BME280;58632;51.718;19.446;2024-02-26T03:19:39;98628.67;;;1.87;100.00
70971;BME280;58632;51.718;19.446;2024-02-26T03:22:05;98626.05;;;1.82;100.00
70971;BME280;58632;51.718;19.446;2024-02-26T03:24:30;98622.70;;;1.79;100.00
70971;BME280;58632;51.718;19.446;2024-02-26T03:26:56;98625.98;;;1.77;100.00
70971;BME280;58632;51.718;19.446;2024-02-26T03:29:21;98630.05;;;1.75;100.00
70971;BME280;58632;51.718;19.446;2024-02-26T03:31:47;98629.40;;;1.70;100.00
70971;BME280;58632;51.718;19.446;2024-02-26T03:34:12;98631.50;;;1.66;100.00
70971;BME280;58632;51.718;19.446;2024-02-26T03:36:40;98629.00;;;1.65;100.00
70971;BME280;58632;51.718;19.446;2024-02-26T03:39:06;98635.16;;;1.65;100.00
70971;BME280;58632;51.718;19.446;2024-02-26T03:41:36;98634.13;;;1.64;100.00
70971;BME280;58632;51.718;19.446;2024-02-26T03:44:02;98629.52;;;1.63;100.00
70971;BME280;58632;51.718;19.446;2024-02-26T03:46:27;98630.06;;;1.62;100.00
70971;BME280;58632;51.718;19.446;2024-02-26T03:48:53;98630.77;;;1.62;100.00
70971;BME280;58632;51.718;19.446;2024-02-26T03:51:19;98633.28;;;1.63;100.00
70971;BME280;58632;51.718;19.446;2024-02-26T03:53:45;98632.98;;;1.65;100.00
70971;BME280;58632;51.718;19.446;2024-02-26T03:56:13;98631.93;;;1.67;100.00
70971;BME280;58632;51.718;19.446;2024-02-26T03:58:39;98632.22;;;1.71;100.00
70971;BME280;58632;51.718;19.446;2024-02-26T04:01:07;98633.14;;;1.73;100.00
70971;BME280;58632;51.718;19.446;2024-02-26T04:03:33;98632.97;;;1.78;100.00
70971;BME280;58632;51.718;19.446;2024-02-26T04:05:58;98636.58;;;1.83;100.00
70971;BME280;58632;51.718;19.446;2024-02-26T04:08:24;98637.12;;;1.83;100.00
70971;BME280;58632;51.718;19.446;2024-02-26T04:10:50;98640.25;;;1.82;100.00
70971;BME280;58632;51.718;19.446;2024-02-26T04:13:17;98642.09;;;1.81;100.00
70971;BME280;58632;51.718;19.446;2024-02-26T04:15:43;98638.89;;;1.79;100.00
70971;BME280;58632;51.718;19.446;2024-02-26T04:18:08;98640.97;;;1.78;100.00
70971;BME280;58632;51.718;19.446;2024-02-26T04:20:34;98638.26;;;1.75;100.00
70971;BME280;58632;51.718;19.446;2024-02-26T04:23:02;98637.98;;;1.72;100.00
70971;BME280;58632;51.718;19.446;2024-02-26T04:25:27;98638.14;;;1.71;100.00
70971;BME280;58632;51.718;19.446;2024-02-26T04:27:53;98633.83;;;1.71;100.00
70971;BME280;58632;51.718;19.446;2024-02-26T04:30:19;98638.00;;;1.71;100.00
70971;BME280;58632;51.718;19.446;2024-02-26T04:32:45;98636.53;;;1.69;100.00
70971;BME280;58632;51.718;19.446;2024-02-26T04:35:10;98640.63;;;1.67;100.00
70971;BME280;58632;51.718;19.446;2024-02-26T04:37:36;98638.27;;;1.65;100.00
70971;BME280;58632;51.718;19.446;2024-02-26T04:40:05;98638.17;;;1.65;100.00
70971;BME280;58632;51.718;19.446;2024-02-26T04:42:31;98639.53;;;1.64;100.00
70971;BME280;58632;51.718;19.446;2024-02-26T04:44:56;98635.09;;;1.65;100.00
70971;BME280;58632;51.718;19.446;2024-02-26T04:47:22;98637.70;;;1.64;100.00
70971;BME280;58632;51.718;19.446;2024-02-26T04:49:49;98634.61;;;1.64;100.00
70971;BME280;58632;51.718;19.446;2024-02-26T04:52:15;98629.11;;;1.65;100.00
70971;BME280;58632;51.718;19.446;2024-02-26T04:54:40;98627.98;;;1.64;100.00
70971;BME280;58632;51.718;19.446;2024-02-26T04:57:06;98627.23;;;1.63;100.00
70971;BME280;58632;51.718;19.446;2024-02-26T04:59:31;98628.92;;;1.62;100.00
70971;BME280;58632;51.718;19.446;2024-02-26T05:01:57;98627.86;;;1.61;100.00
70971;BME280;58632;51.718;19.446;2024-02-26T05:04:25;98625.27;;;1.60;100.00
70971;BME280;58632;51.718;19.446;2024-02-26T05:06:51;98636.09;;;1.60;100.00
70971;BME280;58632;51.718;19.446;2024-02-26T05:09:16;98635.23;;;1.59;100.00
70971;BME280;58632;51.718;19.446;2024-02-26T05:11:42;98639.44;;;1.59;100.00
70971;BME280;58632;51.718;19.446;2024-02-26T05:14:07;98641.77;;;1.59;100.00
70971;BME280;58632;51.718;19.446;2024-02-26T05:16:33;98645.54;;;1.59;100.00
70971;BME280;58632;51.718;19.446;2024-02-26T05:19:02;98644.43;;;1.57;100.00
70971;BME280;58632;51.718;19.446;2024-02-26T05:21:28;98645.92;;;1.55;100.00
70971;BME280;58632;51.718;19.446;2024-02-26T05:23:54;98648.05;;;1.54;100.00
70971;BME280;58632;51.718;19.446;2024-02-26T05:26:20;98645.54;;;1.51;100.00
70971;BME280;58632;51.718;19.446;2024-02-26T05:28:46;98648.08;;;1.50;100.00
70971;BME280;58632;51.718;19.446;2024-02-26T05:31:13;98650.29;;;1.51;100.00
70971;BME280;58632;51.718;19.446;2024-02-26T05:33:39;98653.31;;;1.52;100.00
70971;BME280;58632;51.718;19.446;2024-02-26T05:36:07;98658.46;;;1.53;100.00
70971;BME280;58632;51.718;19.446;2024-02-26T05:38:33;98660.10;;;1.52;100.00
70971;BME280;58632;51.718;19.446;2024-02-26T05:40:59;98660.70;;;1.51;100.00
70971;BME280;58632;51.718;19.446;2024-02-26T05:43:30;98666.98;;;1.49;100.00
70971;BME280;58632;51.718;19.446;2024-02-26T05:45:56;98669.17;;;1.47;100.00
70971;BME280;58632;51.718;19.446;2024-02-26T05:48:21;98674.83;;;1.49;100.00
70971;BME280;58632;51.718;19.446;2024-02-26T05:50:47;98677.53;;;1.52;100.00
70971;BME280;58632;51.718;19.446;2024-02-26T05:53:12;98678.45;;;1.55;100.00
70971;BME280;58632;51.718;19.446;2024-02-26T05:55:38;98675.27;;;1.59;100.00
70971;BME280;58632;51.718;19.446;2024-02-26T05:58:04;98676.61;;;1.64;100.00
70971;BME280;58632;51.718;19.446;2024-02-26T06:00:29;98677.30;;;1.69;100.00
70971;BME280;58632;51.718;19.446;2024-02-26T06:02:55;98679.82;;;1.75;100.00
70971;BME280;58632;51.718;19.446;2024-02-26T06:05:20;98682.63;;;1.83;100.00
70971;BME280;58632;51.718;19.446;2024-02-26T06:07:46;98685.65;;;1.90;100.00
70971;BME280;58632;51.718;19.446;2024-02-26T06:10:11;98690.77;;;1.99;100.00
70971;BME280;58632;51.718;19.446;2024-02-26T06:12:43;98688.95;;;2.09;100.00
70971;BME280;58632;51.718;19.446;2024-02-26T06:15:09;98692.89;;;2.23;100.00
70971;BME280;58632;51.718;19.446;2024-02-26T06:17:35;98694.58;;;2.37;100.00
70971;BME280;58632;51.718;19.446;2024-02-26T06:20:01;98699.10;;;2.48;100.00
70971;BME280;58632;51.718;19.446;2024-02-26T06:22:27;98697.70;;;2.61;100.00
70971;BME280;58632;51.718;19.446;2024-02-26T06:24:52;98698.39;;;2.84;100.00
70971;BME280;58632;51.718;19.446;2024-02-26T06:27:20;98699.19;;;3.09;100.00
70971;BME280;58632;51.718;19.446;2024-02-26T06:29:46;98706.58;;;3.36;100.00
70971;BME280;58632;51.718;19.446;2024-02-26T06:32:13;98705.45;;;3.61;100.00
70971;BME280;58632;51.718;19.446;2024-02-26T06:34:38;98709.09;;;3.80;100.00
70971;BME280;58632;51.718;19.446;2024-02-26T06:37:06;98711.65;;;3.98;100.00
70971;BME280;58632;51.718;19.446;2024-02-26T06:39:34;98704.62;;;4.12;100.00
70971;BME280;58632;51.718;19.446;2024-02-26T06:41:59;98709.98;;;4.31;100.00
70971;BME280;58632;51.718;19.446;2024-02-26T06:44:27;98709.40;;;4.46;100.00
70971;BME280;58632;51.718;19.446;2024-02-26T06:46:58;98707.88;;;4.55;100.00
70971;BME280;58632;51.718;19.446;2024-02-26T06:49:24;98709.77;;;4.67;100.00
70971;BME280;58632;51.718;19.446;2024-02-26T06:51:53;98713.08;;;4.78;100.00
70971;BME280;58632;51.718;19.446;2024-02-26T06:54:19;98712.81;;;4.93;100.00
70971;BME280;58632;51.718;19.446;2024-02-26T06:56:44;98713.48;;;5.14;100.00
70971;BME280;58632;51.718;19.446;2024-02-26T06:59:10;98713.03;;;5.31;100.00
70971;BME280;58632;51.718;19.446;2024-02-26T07:01:35;98716.90;;;5.41;100.00
70971;BME280;58632;51.718;19.446;2024-02-26T07:04:01;98719.40;;;5.49;100.00
70971;BME280;58632;51.718;19.446;2024-02-26T07:06:29;98717.92;;;5.60;100.00
70971;BME280;58632;51.718;19.446;2024-02-26T07:08:57;98715.48;;;5.70;100.00
70971;BME280;58632;51.718;19.446;2024-02-26T07:11:23;98716.04;;;5.85;100.00
70971;BME280;58632;51.718;19.446;2024-02-26T07:13:48;98718.28;;;6.03;100.00
70971;BME280;58632;51.718;19.446;2024-02-26T07:16:15;98713.14;;;6.20;100.00
70971;BME280;58632;51.718;19.446;2024-02-26T07:18:42;98714.59;;;6.29;100.00
70971;BME280;58632;51.718;19.446;2024-02-26T07:21:14;98714.27;;;6.43;100.00
70971;BME280;58632;51.718;19.446;2024-02-26T07:23:40;98715.86;;;6.58;100.00
70971;BME280;58632;51.718;19.446;2024-02-26T07:26:05;98711.05;;;6.78;100.00
70971;BME280;58632;51.718;19.446;2024-02-26T07:28:33;98713.80;;;6.93;100.00
70971;BME280;58632;51.718;19.446;2024-02-26T07:30:59;98712.45;;;7.04;100.00
70971;BME280;58632;51.718;19.446;2024-02-26T07:33:27;98713.84;;;7.23;100.00
70971;BME280;58632;51.718;19.446;2024-02-26T07:35:53;98713.10;;;7.40;100.00
70971;BME280;58632;51.718;19.446;2024-02-26T07:38:19;98713.39;;;7.51;100.00
70971;BME280;58632;51.718;19.446;2024-02-26T07:40:44;98717.96;;;7.62;100.00
70971;BME280;58632;51.718;19.446;2024-02-26T07:43:10;98718.04;;;7.80;100.00
70971;BME280;58632;51.718;19.446;2024-02-26T07:45:36;98715.23;;;7.94;100.00
70971;BME280;58632;51.718;19.446;2024-02-26T07:48:02;98714.64;;;8.07;100.00
70971;BME280;58632;51.718;19.446;2024-02-26T07:50:28;98718.34;;;8.22;100.00
70971;BME280;58632;51.718;19.446;2024-02-26T07:52:53;98718.52;;;8.38;100.00
70971;BME280;58632;51.718;19.446;2024-02-26T07:55:19;98717.73;;;8.56;100.00
70971;BME280;58632;51.718;19.446;2024-02-26T07:57:45;98721.21;;;8.72;100.00
70971;BME280;58632;51.718;19.446;2024-02-26T08:00:11;98721.96;;;8.87;100.00
70971;BME280;58632;51.718;19.446;2024-02-26T08:02:36;98718.98;;;9.09;100.00
70971;BME280;58632;51.718;19.446;2024-02-26T08:05:02;98717.02;;;9.29;100.00
70971;BME280;58632;51.718;19.446;2024-02-26T08:07:28;98719.07;;;9.49;100.00
70971;BME280;58632;51.718;19.446;2024-02-26T08:09:54;98716.21;;;9.65;100.00
70971;BME280;58632;51.718;19.446;2024-02-26T08:12:19;98717.15;;;9.72;100.00
70971;BME280;58632;51.718;19.446;2024-02-26T08:14:45;98719.86;;;9.71;100.00
70971;BME280;58632;51.718;19.446;2024-02-26T08:17:10;98725.64;;;9.82;100.00
70971;BME280;58632;51.718;19.446;2024-02-26T08:19:36;98726.48;;;9.93;100.00
70971;BME280;58632;51.718;19.446;2024-02-26T08:22:02;98728.08;;;10.04;100.00
70971;BME280;58632;51.718;19.446;2024-02-26T08:24:27;98723.58;;;10.16;100.00
70971;BME280;58632;51.718;19.446;2024-02-26T08:26:53;98719.39;;;10.29;100.00
70971;BME280;58632;51.718;19.446;2024-02-26T08:29:19;98722.80;;;10.44;100.00
70971;BME280;58632;51.718;19.446;2024-02-26T08:31:45;98727.87;;;10.54;100.00
70971;BME280;58632;51.718;19.446;2024-02-26T08:34:13;98724.76;;;10.64;100.00
70971;BME280;58632;51.718;19.446;2024-02-26T08:36:38;98726.34;;;10.73;100.00
70971;BME280;58632;51.718;19.446;2024-02-26T08:39:04;98722.90;;;10.89;100.00
70971;BME280;58632;51.718;19.446;2024-02-26T08:41:29;98725.68;;;11.03;100.00
70971;BME280;58632;51.718;19.446;2024-02-26T08:43:55;98726.05;;;11.11;100.00
70971;BME280;58632;51.718;19.446;2024-02-26T08:46:20;98728.13;;;11.10;100.00
70971;BME280;58632;51.718;19.446;2024-02-26T08:48:46;98724.75;;;11.21;100.00
70971;BME280;58632;51.718;19.446;2024-02-26T08:51:15;98730.89;;;11.32;100.00
70971;BME280;58632;51.718;19.446;2024-02-26T08:53:41;98726.33;;;11.40;100.00
70971;BME280;58632;51.718;19.446;2024-02-26T08:56:07;98730.64;;;11.47;100.00
70971;BME280;58632;51.718;19.446;2024-02-26T08:58:32;98733.75;;;11.55;100.00
70971;BME280;58632;51.718;19.446;2024-02-26T09:00:57;98734.21;;;11.61;100.00
70971;BME280;58632;51.718;19.446;2024-02-26T09:03:23;98734.14;;;11.68;100.00
70971;BME280;58632;51.718;19.446;2024-02-26T09:05:49;98727.59;;;11.76;100.00
70971;BME280;58632;51.718;19.446;2024-02-26T09:08:15;98731.75;;;11.80;100.00
70971;BME280;58632;51.718;19.446;2024-02-26T09:10:41;98730.98;;;11.80;100.00
70971;BME280;58632;51.718;19.446;2024-02-26T09:13:06;98727.28;;;11.82;100.00
70971;BME280;58632;51.718;19.446;2024-02-26T09:15:32;98731.45;;;11.83;100.00
70971;BME280;58632;51.718;19.446;2024-02-26T09:17:58;98727.45;;;11.83;100.00
70971;BME280;58632;51.718;19.446;2024-02-26T09:20:24;98729.67;;;11.93;100.00
70971;BME280;58632;51.718;19.446;2024-02-26T09:22:50;98725.27;;;11.99;100.00
70971;BME280;58632;51.718;19.446;2024-02-26T09:25:16;98724.70;;;12.02;100.00
70971;BME280;58632;51.718;19.446;2024-02-26T09:27:42;98726.08;;;11.97;100.00
70971;BME280;58632;51.718;19.446;2024-02-26T09:30:10;98723.73;;;11.97;100.00
70971;BME280;58632;51.718;19.446;2024-02-26T09:32:35;98728.23;;;11.95;100.00
70971;BME280;58632;51.718;19.446;2024-02-26T09:35:05;98723.66;;;11.98;100.00
70971;BME280;58632;51.718;19.446;2024-02-26T09:37:31;98723.67;;;12.01;100.00
70971;BME280;58632;51.718;19.446;2024-02-26T09:39:57;98723.95;;;12.07;100.00
70971;BME280;58632;51.718;19.446;2024-02-26T09:42:26;98723.71;;;12.07;100.00
70971;BME280;58632;51.718;19.446;2024-02-26T09:44:54;98728.02;;;12.10;100.00
70971;BME280;58632;51.718;19.446;2024-02-26T09:47:26;98725.70;;;12.15;100.00
70971;BME280;58632;51.718;19.446;2024-02-26T09:49:56;98724.52;;;12.21;100.00
70971;BME280;58632;51.718;19.446;2024-02-26T09:52:23;98732.44;;;12.22;100.00
70971;BME280;58632;51.718;19.446;2024-02-26T09:54:49;98730.55;;;12.24;100.00
70971;BME280;58632;51.718;19.446;2024-02-26T09:57:16;98732.43;;;12.29;100.00
70971;BME280;58632;51.718;19.446;2024-02-26T09:59:43;98732.67;;;12.37;100.00
70971;BME280;58632;51.718;19.446;2024-02-26T10:02:12;98733.86;;;12.41;100.00
70971;BME280;58632;51.718;19.446;2024-02-26T10:04:39;98731.98;;;12.41;100.00
70971;BME280;58632;51.718;19.446;2024-02-26T10:07:11;98727.77;;;12.45;100.00
70971;BME280;58632;51.718;19.446;2024-02-26T10:09:40;98731.26;;;12.47;100.00
70971;BME280;58632;51.718;19.446;2024-02-26T10:12:07;98733.93;;;12.48;100.00
70971;BME280;58632;51.718;19.446;2024-02-26T10:14:34;98734.84;;;12.50;100.00
70971;BME280;58632;51.718;19.446;2024-02-26T10:17:00;98732.92;;;12.60;100.00
70971;BME280;58632;51.718;19.446;2024-02-26T10:19:30;98730.23;;;12.66;100.00
70971;BME280;58632;51.718;19.446;2024-02-26T10:22:00;98731.54;;;12.65;100.00
70971;BME280;58632;51.718;19.446;2024-02-26T10:24:29;98734.05;;;12.68;100.00
70971;BME280;58632;51.718;19.446;2024-02-26T10:26:56;98732.30;;;12.71;100.00
70971;BME280;58632;51.718;19.446;2024-02-26T10:29:23;98723.52;;;12.71;100.00
70971;BME280;58632;51.718;19.446;2024-02-26T10:31:50;98728.79;;;12.77;99.70
70971;BME280;58632;51.718;19.446;2024-02-26T10:34:16;98729.36;;;12.77;99.54
70971;BME280;58632;51.718;19.446;2024-02-26T10:36:42;98733.54;;;12.78;99.20
70971;BME280;58632;51.718;19.446;2024-02-26T10:39:12;98734.27;;;12.80;97.58
70971;BME280;58632;51.718;19.446;2024-02-26T10:41:43;98730.02;;;12.78;97.40
70971;BME280;58632;51.718;19.446;2024-02-26T10:44:09;98732.35;;;12.79;98.76
70971;BME280;58632;51.718;19.446;2024-02-26T10:46:37;98731.41;;;12.78;96.46
70971;BME280;58632;51.718;19.446;2024-02-26T10:49:02;98731.42;;;12.79;98.66
70971;BME280;58632;51.718;19.446;2024-02-26T10:51:30;98729.13;;;12.82;97.88
70971;BME280;58632;51.718;19.446;2024-02-26T10:53:58;98725.61;;;12.86;97.13
70971;BME280;58632;51.718;19.446;2024-02-26T10:56:34;98721.29;;;12.86;97.71
70971;BME280;58632;51.718;19.446;2024-02-26T10:59:00;98718.27;;;12.92;97.43
70971;BME280;58632;51.718;19.446;2024-02-26T11:01:27;98722.69;;;12.98;96.93
70971;BME280;58632;51.718;19.446;2024-02-26T11:03:55;98720.32;;;13.05;96.35
70971;BME280;58632;51.718;19.446;2024-02-26T11:06:28;98719.89;;;13.12;98.53
70971;BME280;58632;51.718;19.446;2024-02-26T11:08:54;98725.10;;;13.18;96.60
70971;BME280;58632;51.718;19.446;2024-02-26T11:11:20;98724.64;;;13.18;94.52
70971;BME280;58632;51.718;19.446;2024-02-26T11:13:48;98724.96;;;13.19;93.50
70971;BME280;58632;51.718;19.446;2024-02-26T11:16:21;98723.25;;;13.15;94.96
70971;BME280;58632;51.718;19.446;2024-02-26T11:18:48;98721.23;;;13.17;96.01
70971;BME280;58632;51.718;19.446;2024-02-26T11:21:17;98717.25;;;13.18;99.28
70971;BME280;58632;51.718;19.446;2024-02-26T11:23:53;98716.89;;;13.20;98.63
70971;BME280;58632;51.718;19.446;2024-02-26T11:26:20;98718.00;;;13.16;98.01
70971;BME280;58632;51.718;19.446;2024-02-26T11:28:48;98713.85;;;13.17;100.00
70971;BME280;58632;51.718;19.446;2024-02-26T11:31:16;98712.86;;;13.26;100.00
70971;BME280;58632;51.718;19.446;2024-02-26T11:33:45;98710.90;;;13.30;100.00
70971;BME280;58632;51.718;19.446;2024-02-26T11:36:11;98714.83;;;13.30;99.47
70971;BME280;58632;51.718;19.446;2024-02-26T11:38:38;98711.06;;;13.30;99.24
70971;BME280;58632;51.718;19.446;2024-02-26T11:41:07;98710.48;;;13.34;95.88
70971;BME280;58632;51.718;19.446;2024-02-26T11:43:58;98713.61;;;13.38;96.26
70971;BME280;58632;51.718;19.446;2024-02-26T11:46:40;98709.01;;;13.39;98.68
70971;BME280;58632;51.718;19.446;2024-02-26T11:51:52;98707.05;;;13.40;96.13
70971;BME280;58632;51.718;19.446;2024-02-26T11:57:04;98699.81;;;13.43;100.00
70971;BME280;58632;51.718;19.446;2024-02-26T11:59:39;98704.05;;;13.43;100.00
70971;BME280;58632;51.718;19.446;2024-02-26T12:02:07;98702.41;;;13.44;100.00
70971;BME280;58632;51.718;19.446;2024-02-26T12:04:33;98699.94;;;13.46;99.98
70971;BME280;58632;51.718;19.446;2024-02-26T12:07:02;98700.23;;;13.50;100.00
70971;BME280;58632;51.718;19.446;2024-02-26T12:09:39;98699.05;;;13.49;98.67
70971;BME280;58632;51.718;19.446;2024-02-26T12:12:10;98695.02;;;13.48;97.51
70971;BME280;58632;51.718;19.446;2024-02-26T12:14:52;98697.94;;;13.49;95.68
70971;BME280;58632;51.718;19.446;2024-02-26T12:17:25;98703.15;;;13.50;87.48
70971;BME280;58632;51.718;19.446;2024-02-26T12:19:51;98706.54;;;13.42;82.53
70971;BME280;58632;51.718;19.446;2024-02-26T12:22:19;98708.33;;;13.46;88.68
70971;BME280;58632;51.718;19.446;2024-02-26T12:24:45;98708.29;;;13.52;86.81
70971;BME280;58632;51.718;19.446;2024-02-26T12:27:11;98706.23;;;13.51;79.28
70971;BME280;58632;51.718;19.446;2024-02-26T12:29:37;98709.50;;;13.45;81.10
70971;BME280;58632;51.718;19.446;2024-02-26T12:32:04;98710.14;;;13.45;80.40
70971;BME280;58632;51.718;19.446;2024-02-26T12:34:30;98711.33;;;13.46;77.50
70971;BME280;58632;51.718;19.446;2024-02-26T12:36:56;98717.59;;;13.40;75.42
70971;BME280;58632;51.718;19.446;2024-02-26T12:39:22;98720.16;;;13.39;76.57
70971;BME280;58632;51.718;19.446;2024-02-26T12:41:48;98718.16;;;13.37;76.86
70971;BME280;58632;51.718;19.446;2024-02-26T12:44:18;98718.36;;;13.35;75.07
70971;BME280;58632;51.718;19.446;2024-02-26T12:46:46;98719.31;;;13.35;74.62
70971;BME280;58632;51.718;19.446;2024-02-26T12:49:15;98715.09;;;13.37;75.03
70971;BME280;58632;51.718;19.446;2024-02-26T12:51:41;98709.05;;;13.37;72.21